Time;durP1;ratioP1;P1;durP2;ratioP2;P2;SDS_P1;SDS_P2;PMS_P1;PMS_P2;Temp;Humidity;BMP_temperature;BMP_pressure;BME280_temperature;BME280_humidity;BME280_pressure;Samples;Min_cycle;Max_cycle;Signal;HPM_P1;HPM_P2
2023/08/26 00:01:10;;;;;;;19.23;10.80;;;;;;;17.89;100.00;100642.94;5021490;28;20049;-65
2023/08/26 00:03:36;;;;;;;22.67;10.88;;;;;;;17.87;100.00;100643.16;5008862;28;20399;-65
2023/08/26 00:06:01;;;;;;;22.48;10.88;;;;;;;17.88;100.00;100652.66;5022806;28;20045;-66
2023/08/26 00:08:26;;;;;;;18.83;11.55;;;;;;;17.88;100.00;100654.47;4988919;28;20496;-65
2023/08/26 00:10:52;;;;;;;19.63;11.63;;;;;;;17.87;100.00;100663.34;5019458;28;20042;-66
2023/08/26 00:13:17;;;;;;;20.65;11.23;;;;;;;17.90;100.00;100658.50;5018911;28;20041;-66
2023/08/26 00:15:43;;;;;;;19.25;11.25;;;;;;;17.79;100.00;100661.72;5017565;28;20041;-66
2023/08/26 00:18:11;;;;;;;16.00;9.02;;;;;;;17.75;100.00;100662.34;5005937;28;20048;-66
2023/08/26 00:20:38;;;;;;;16.70;9.85;;;;;;;17.77;100.00;100662.94;5005989;28;20499;-66
2023/08/26 00:23:03;;;;;;;16.08;9.82;;;;;;;17.79;100.00;100653.84;5018238;28;20053;-66
2023/08/26 00:25:30;;;;;;;25.45;11.35;;;;;;;17.77;100.00;100662.94;5021339;28;20033;-65
2023/08/26 00:27:55;;;;;;;19.98;10.05;;;;;;;17.83;100.00;100659.50;5000846;28;20512;-65
2023/08/26 00:30:22;;;;;;;17.15;9.77;;;;;;;17.71;100.00;100654.09;5000022;28;20035;-66
2023/08/26 00:32:48;;;;;;;14.95;8.00;;;;;;;17.69;100.00;100656.13;5019797;28;20038;-67
2023/08/26 00:35:14;;;;;;;17.33;10.02;;;;;;;17.73;100.00;100656.53;4999498;28;20025;-66
2023/08/26 00:37:39;;;;;;;22.75;10.63;;;;;;;17.70;100.00;100652.47;5002368;28;20041;-66
2023/08/26 00:40:06;;;;;;;19.08;10.85;;;;;;;17.70;100.00;100652.47;5002080;28;20041;-66
2023/08/26 00:42:36;;;;;;;18.05;10.68;;;;;;;17.68;100.00;100650.06;5018442;28;20045;-66
2023/08/26 00:45:02;;;;;;;23.63;11.95;;;;;;;17.71;100.00;100652.28;5006325;28;20037;-66
2023/08/26 00:47:28;;;;;;;20.48;11.68;;;;;;;17.67;100.00;100651.09;5005462;28;20041;-66
2023/08/26 00:49:54;;;;;;;23.50;12.55;;;;;;;17.66;100.00;100640.78;5008486;28;20025;-65
2023/08/26 00:52:19;;;;;;;22.77;11.27;;;;;;;17.64;100.00;100643.63;5023088;28;20029;-65
2023/08/26 00:54:45;;;;;;;20.42;11.32;;;;;;;17.65;100.00;100647.03;5001820;28;20052;-66
2023/08/26 00:57:11;;;;;;;27.05;13.93;;;;;;;17.69;100.00;100650.88;5002380;28;20385;-66
2023/08/26 00:59:36;;;;;;;20.00;12.80;;;;;;;17.67;100.00;100642.41;5006397;28;20049;-66
2023/08/26 01:02:02;;;;;;;23.52;12.45;;;;;;;17.44;100.00;100648.94;5004567;28;20045;-66
2023/08/26 01:04:27;;;;;;;19.85;10.85;;;;;;;17.38;100.00;100659.41;4990076;28;20404;-65
2023/08/26 01:06:53;;;;;;;22.75;11.18;;;;;;;17.34;100.00;100660.81;5018742;28;20038;-66
2023/08/26 01:09:18;;;;;;;19.98;9.60;;;;;;;17.24;100.00;100659.44;4990697;28;20034;-66
2023/08/26 01:12:17;;;;;;;14.15;8.82;;;;;;;17.17;100.00;100673.53;4986696;28;20046;-66
2023/08/26 01:14:56;;;;;;;17.58;9.93;;;;;;;17.08;100.00;100679.00;5005084;28;20048;-66
2023/08/26 01:17:23;;;;;;;13.30;8.10;;;;;;;17.02;100.00;100686.84;5004029;28;20126;-66
2023/08/26 01:19:49;;;;;;;18.08;7.15;;;;;;;16.86;100.00;100686.22;5022243;28;20052;-66
2023/08/26 01:22:18;;;;;;;12.18;5.72;;;;;;;16.75;100.00;100694.63;5002890;28;20092;-66
2023/08/26 01:24:44;;;;;;;12.25;5.28;;;;;;;16.62;100.00;100699.84;5002240;28;20029;-66
2023/08/26 01:27:10;;;;;;;13.48;4.45;;;;;;;16.69;97.60;100703.31;5019914;28;20108;-66
2023/08/26 01:29:35;;;;;;;15.77;3.88;;;;;;;16.58;95.32;100703.88;5005136;28;20098;-66
2023/08/26 01:32:30;;;;;;;9.05;2.97;;;;;;;16.46;94.96;100717.53;5004037;28;20030;-66
2023/08/26 01:35:02;;;;;;;9.60;3.03;;;;;;;16.40;94.25;100710.44;5000796;28;20052;-66
2023/08/26 01:37:28;;;;;;;4.30;2.58;;;;;;;16.24;94.72;100708.19;4987195;28;20124;-66
2023/08/26 01:39:58;;;;;;;7.10;2.70;;;;;;;16.22;93.55;100718.84;5005176;28;20037;-65
2023/08/26 01:42:24;;;;;;;6.72;3.05;;;;;;;16.15;93.03;100718.81;5003797;28;20046;-66
2023/08/26 01:44:50;;;;;;;9.30;2.47;;;;;;;16.02;93.99;100717.94;5021529;28;20038;-66
2023/08/26 01:47:16;;;;;;;7.18;2.40;;;;;;;15.96;92.83;100730.00;5001454;28;20088;-66
2023/08/26 01:49:43;;;;;;;4.60;2.10;;;;;;;15.85;92.56;100722.69;5005521;28;20045;-66
2023/08/26 01:52:10;;;;;;;6.85;2.03;;;;;;;15.78;93.89;100733.09;5004173;28;20629;-65
2023/08/26 01:54:35;;;;;;;10.40;2.15;;;;;;;15.68;94.07;100728.19;5021898;28;20587;-65
2023/08/26 01:57:02;;;;;;;6.05;1.88;;;;;;;15.64;92.89;100732.19;5003227;28;20580;-65
2023/08/26 01:59:28;;;;;;;5.15;1.90;;;;;;;15.57;94.21;100726.09;5005151;28;20057;-65
2023/08/26 02:01:53;;;;;;;4.60;1.70;;;;;;;15.48;94.67;100729.84;5001822;28;20037;-66
2023/08/26 02:04:19;;;;;;;4.32;1.60;;;;;;;15.47;94.11;100736.88;4990638;28;20047;-66
2023/08/26 02:06:45;;;;;;;6.50;1.92;;;;;;;15.48;93.94;100735.06;4987912;28;20704;-65
2023/08/26 02:09:11;;;;;;;6.40;1.60;;;;;;;15.45;95.34;100743.31;5002204;28;20079;-65
2023/08/26 02:11:36;;;;;;;7.80;1.90;;;;;;;15.34;94.80;100742.81;5019267;28;20084;-66
2023/08/26 02:14:02;;;;;;;8.50;2.20;;;;;;;15.33;94.87;100740.38;5004908;28;20033;-66
2023/08/26 02:16:27;;;;;;;4.07;1.70;;;;;;;15.32;94.41;100742.19;5005873;28;20042;-66
2023/08/26 02:18:53;;;;;;;6.82;2.13;;;;;;;15.28;94.13;100738.34;4986797;28;20044;-65
2023/08/26 02:21:18;;;;;;;7.25;1.75;;;;;;;15.34;94.47;100736.78;4986860;28;20060;-66
2023/08/26 02:23:44;;;;;;;8.27;1.80;;;;;;;15.23;95.24;100742.50;4987799;28;20041;-65
2023/08/26 02:26:10;;;;;;;9.98;1.67;;;;;;;15.29;94.62;100739.13;4989010;28;20155;-66
2023/08/26 02:28:35;;;;;;;5.32;1.98;;;;;;;15.21;95.67;100737.47;5004488;28;20499;-66
2023/08/26 02:31:04;;;;;;;6.00;2.13;;;;;;;15.14;95.94;100740.03;5003059;28;20040;-66
2023/08/26 02:33:30;;;;;;;7.38;2.60;;;;;;;15.10;95.17;100746.59;4988325;28;21304;-66
2023/08/26 02:35:55;;;;;;;5.15;1.67;;;;;;;15.05;96.24;100741.16;4984559;28;20045;-66
2023/08/26 02:38:21;;;;;;;7.22;1.80;;;;;;;15.03;97.28;100742.31;5003648;28;20037;-65
2023/08/26 02:40:55;;;;;;;14.00;2.45;;;;;;;15.09;95.81;100741.59;5001571;28;20091;-66
2023/08/26 02:43:22;;;;;;;4.38;2.03;;;;;;;15.03;96.66;100752.75;5000972;28;20053;-66
2023/08/26 02:45:53;;;;;;;7.55;2.30;;;;;;;14.90;97.38;100751.66;5004062;28;20550;-66
2023/08/26 02:48:19;;;;;;;5.20;1.98;;;;;;;14.84;97.85;100751.56;5016894;28;20068;-65
2023/08/26 02:50:44;;;;;;;4.60;2.20;;;;;;;14.83;97.95;100752.59;4998993;28;20149;-66
2023/08/26 02:53:10;;;;;;;4.68;2.03;;;;;;;14.80;98.09;100745.91;5003200;28;20033;-66
2023/08/26 02:55:35;;;;;;;8.10;1.83;;;;;;;14.82;97.64;100750.94;5001700;28;20504;-66
2023/08/26 02:58:01;;;;;;;9.52;2.10;;;;;;;14.81;98.80;100759.78;5003469;28;20041;-66
2023/08/26 03:00:26;;;;;;;9.85;2.70;;;;;;;14.76;98.12;100755.09;4986891;28;20049;-65
2023/08/26 03:02:53;;;;;;;7.40;1.85;;;;;;;14.72;98.11;100748.66;4985392;28;20033;-66
2023/08/26 03:05:19;;;;;;;11.25;2.20;;;;;;;14.66;98.40;100744.16;5007186;28;20033;-66
2023/08/26 03:07:44;;;;;;;6.90;2.03;;;;;;;14.60;99.19;100741.28;5004188;28;20061;-66
2023/08/26 03:10:10;;;;;;;9.60;2.30;;;;;;;14.62;97.61;100745.50;5003083;28;20034;-66
2023/08/26 03:12:35;;;;;;;3.58;1.90;;;;;;;14.56;98.51;100744.41;5001442;28;20041;-66
2023/08/26 03:15:01;;;;;;;6.25;1.92;;;;;;;14.54;98.73;100747.22;4984439;28;20034;-68
2023/08/26 03:17:26;;;;;;;4.50;1.70;;;;;;;14.56;99.24;100752.22;5002961;28;20119;-66
2023/08/26 03:19:52;;;;;;;6.28;1.83;;;;;;;14.53;98.74;100744.78;5002569;28;20036;-66
2023/08/26 03:22:17;;;;;;;10.00;2.17;;;;;;;14.52;97.26;100749.22;4984154;28;20488;-66
2023/08/26 03:24:42;;;;;;;6.13;2.40;;;;;;;14.48;98.70;100755.75;4991950;28;20040;-66
2023/08/26 03:27:09;;;;;;;8.32;2.25;;;;;;;14.51;99.14;100760.63;5006856;28;20522;-66
2023/08/26 03:29:34;;;;;;;7.30;2.38;;;;;;;14.43;99.88;100763.34;5023378;28;20052;-66
2023/08/26 03:32:00;;;;;;;4.72;2.53;;;;;;;14.39;100.00;100765.50;4990644;28;20029;-66
2023/08/26 03:34:26;;;;;;;11.73;2.50;;;;;;;14.31;100.00;100759.56;5005412;28;20033;-66
2023/08/26 03:36:52;;;;;;;9.00;2.72;;;;;;;14.26;100.00;100762.72;5007208;28;20029;-66
2023/08/26 03:39:18;;;;;;;9.55;3.03;;;;;;;14.26;100.00;100761.91;5010240;28;20124;-66
2023/08/26 03:41:43;;;;;;;7.00;2.17;;;;;;;14.25;100.00;100757.69;5008490;28;20053;-66
2023/08/26 03:44:09;;;;;;;9.07;2.78;;;;;;;14.24;100.00;100766.50;5003190;28;20030;-66
2023/08/26 03:46:34;;;;;;;6.28;2.38;;;;;;;14.19;100.00;100772.25;4991298;28;20033;-66
2023/08/26 03:49:00;;;;;;;5.40;2.08;;;;;;;14.20;100.00;100771.25;5022991;28;20037;-66
2023/08/26 03:51:26;;;;;;;6.75;2.30;;;;;;;14.19;100.00;100782.69;5007706;28;20034;-66
2023/08/26 03:53:52;;;;;;;12.27;2.85;;;;;;;14.16;100.00;100781.22;5003887;28;20033;-66
2023/08/26 03:56:18;;;;;;;8.68;2.38;;;;;;;14.16;100.00;100781.22;5000907;28;20538;-66
2023/08/26 03:58:43;;;;;;;9.05;2.55;;;;;;;14.15;100.00;100777.03;5006393;28;20041;-66
2023/08/26 04:01:09;;;;;;;4.90;2.50;;;;;;;14.15;100.00;100784.03;5004766;28;20048;-66
2023/08/26 04:03:34;;;;;;;10.75;2.70;;;;;;;14.12;100.00;100787.00;5005151;28;21203;-66
2023/08/26 04:06:00;;;;;;;6.57;2.25;;;;;;;14.10;100.00;100771.53;5001997;28;20060;-66
2023/08/26 04:08:27;;;;;;;13.38;3.50;;;;;;;14.07;100.00;100782.34;5006646;28;20037;-66
2023/08/26 04:10:57;;;;;;;10.85;2.45;;;;;;;14.08;100.00;100780.53;5000726;28;20044;-66
2023/08/26 04:13:26;;;;;;;12.75;2.58;;;;;;;14.10;99.70;100776.75;5002521;28;20579;-66
2023/08/26 04:15:53;;;;;;;9.63;2.35;;;;;;;14.06;98.94;100783.31;5002900;28;20033;-66
2023/08/26 04:18:20;;;;;;;6.78;2.35;;;;;;;14.08;100.00;100775.31;5004283;28;20053;-66
2023/08/26 04:20:45;;;;;;;8.75;2.60;;;;;;;13.97;99.84;100784.38;5001757;28;20064;-66
2023/08/26 04:23:11;;;;;;;13.10;2.63;;;;;;;13.95;100.00;100786.34;5002822;28;20483;-66
2023/08/26 04:25:37;;;;;;;6.38;2.22;;;;;;;13.99;99.92;100795.44;4983813;28;20029;-67
2023/08/26 04:28:03;;;;;;;8.52;2.67;;;;;;;13.94;99.20;100803.81;4988762;28;20033;-66
2023/08/26 04:30:28;;;;;;;9.90;2.30;;;;;;;13.90;99.63;100799.09;5001234;28;20037;-66
2023/08/26 04:32:54;;;;;;;8.02;2.33;;;;;;;13.88;100.00;100798.47;4988686;28;20052;-66
2023/08/26 04:35:20;;;;;;;9.38;2.83;;;;;;;13.86;100.00;100797.84;5003634;28;20042;-66
2023/08/26 04:37:46;;;;;;;7.47;2.15;;;;;;;13.85;99.52;100802.25;5001496;28;20037;-66
2023/08/26 04:40:12;;;;;;;13.00;2.45;;;;;;;13.88;98.69;100796.69;5001402;28;20037;-66
2023/08/26 04:42:41;;;;;;;5.80;1.90;;;;;;;13.88;98.96;100793.25;5003610;28;20495;-66
2023/08/26 04:45:09;;;;;;;9.52;2.45;;;;;;;13.81;99.45;100793.97;5004206;28;20090;-66
2023/08/26 04:47:36;;;;;;;11.45;2.88;;;;;;;13.91;99.12;100796.31;4999575;28;20037;-66
2023/08/26 04:50:03;;;;;;;9.10;1.80;;;;;;;13.81;99.11;100799.19;5001396;28;20048;-66
2023/08/26 04:52:29;;;;;;;7.03;2.05;;;;;;;13.77;99.68;100812.78;4985143;28;20041;-66
2023/08/26 04:54:54;;;;;;;7.78;1.67;;;;;;;13.81;99.81;100799.19;5023600;28;20087;-66
2023/08/26 04:57:20;;;;;;;7.03;2.08;;;;;;;13.78;99.52;100815.16;5016932;28;20046;-66
2023/08/26 04:59:45;;;;;;;9.43;2.03;;;;;;;13.79;100.00;100810.78;5003882;28;20041;-66
2023/08/26 05:02:11;;;;;;;6.57;2.20;;;;;;;13.80;98.93;100812.41;4999680;28;20057;-66
2023/08/26 05:04:37;;;;;;;5.80;2.13;;;;;;;13.79;99.17;100822.03;5001292;28;20030;-66
2023/08/26 05:07:03;;;;;;;5.50;1.80;;;;;;;13.80;98.72;100817.59;4986216;28;20503;-66
2023/08/26 05:09:29;;;;;;;8.10;1.75;;;;;;;13.83;97.59;100825.88;5006862;28;20172;-66
2023/08/26 05:11:58;;;;;;;3.50;1.42;;;;;;;13.87;99.06;100818.53;5018236;28;20038;-66
2023/08/26 05:14:25;;;;;;;4.43;1.67;;;;;;;13.88;98.61;100827.16;5005494;28;20042;-66
2023/08/26 05:16:50;;;;;;;2.47;1.17;;;;;;;13.83;99.72;100831.09;5004700;28;20032;-66
2023/08/26 05:19:16;;;;;;;4.63;1.40;;;;;;;13.87;100.00;100823.75;5008427;28;20045;-66
2023/08/26 05:21:43;;;;;;;5.50;1.60;;;;;;;13.91;98.21;100832.81;5020440;28;20100;-66
2023/08/26 05:24:09;;;;;;;3.95;1.48;;;;;;;13.89;98.20;100829.59;5003476;28;20026;-66
2023/08/26 05:26:36;;;;;;;8.00;1.85;;;;;;;13.89;99.11;100836.59;5003338;28;20091;-66
2023/08/26 05:29:01;;;;;;;8.15;1.60;;;;;;;13.95;97.46;100836.69;5002140;28;21362;-66
2023/08/26 05:31:27;;;;;;;3.75;1.48;;;;;;;14.00;96.11;100836.16;5004910;28;20053;-66
2023/08/26 05:33:52;;;;;;;9.43;1.50;;;;;;;14.09;95.05;100836.88;4999071;28;20044;-66
2023/08/26 05:36:18;;;;;;;3.45;1.10;;;;;;;13.99;96.47;100842.38;5003334;28;20037;-66
2023/08/26 05:38:43;;;;;;;6.03;1.70;;;;;;;14.01;97.00;100845.59;5001637;28;20624;-66
2023/08/26 05:41:09;;;;;;;3.30;1.20;;;;;;;14.03;97.52;100838.41;5016576;28;20037;-66
2023/08/26 05:43:34;;;;;;;4.78;1.30;;;;;;;14.07;97.64;100841.47;4998335;28;20034;-66
2023/08/26 05:46:00;;;;;;;3.78;1.10;;;;;;;14.07;98.19;100850.13;5003648;28;20041;-66
2023/08/26 05:48:27;;;;;;;8.02;1.35;;;;;;;14.12;96.66;100845.16;5005718;28;20028;-66
2023/08/26 05:50:52;;;;;;;3.05;1.27;;;;;;;14.18;96.69;100852.31;5003102;28;20045;-66
2023/08/26 05:53:19;;;;;;;5.00;1.58;;;;;;;14.16;96.80;100848.22;4999699;28;20034;-66
2023/08/26 05:55:46;;;;;;;2.58;1.20;;;;;;;14.24;94.54;100842.94;5001872;28;20376;-67
2023/08/26 05:58:12;;;;;;;6.57;1.23;;;;;;;14.17;95.66;100837.63;4986081;28;20095;-66
2023/08/26 06:00:37;;;;;;;5.68;1.60;;;;;;;14.26;95.16;100846.19;5001277;28;20025;-66
2023/08/26 06:03:03;;;;;;;3.00;1.30;;;;;;;14.35;93.20;100846.91;5003695;28;20083;-66
2023/08/26 06:05:28;;;;;;;5.65;1.70;;;;;;;14.40;94.46;100845.38;5004776;28;20029;-66
2023/08/26 06:07:54;;;;;;;7.95;1.20;;;;;;;14.49;92.49;100840.06;5001284;28;20519;-66
2023/08/26 06:10:21;;;;;;;11.38;1.50;;;;;;;14.54;93.25;100837.72;5001707;28;20040;-66
2023/08/26 06:12:48;;;;;;;5.28;1.17;;;;;;;14.60;93.47;100842.25;5000036;28;20042;-66
2023/08/26 06:15:15;;;;;;;6.10;1.40;;;;;;;14.60;93.39;100834.44;4988801;28;20136;-66
2023/08/26 06:17:42;;;;;;;1.65;0.70;;;;;;;14.56;92.44;100833.94;4999711;28;20064;-66
2023/08/26 06:20:09;;;;;;;6.35;1.20;;;;;;;14.60;93.83;100829.22;5003824;28;20049;-66
2023/08/26 06:22:35;;;;;;;3.70;1.10;;;;;;;14.64;93.37;100832.28;5002311;28;20033;-66
2023/08/26 06:25:00;;;;;;;5.10;1.27;;;;;;;14.62;93.86;100829.84;5019720;28;20029;-66
2023/08/26 06:27:27;;;;;;;3.15;1.20;;;;;;;14.66;92.56;100831.09;5005369;28;21729;-66
2023/08/26 06:29:53;;;;;;;4.20;1.00;;;;;;;14.73;93.01;100849.41;5006056;28;20480;-66
2023/08/26 06:32:20;;;;;;;10.73;1.88;;;;;;;14.75;93.43;100831.81;5000728;28;20037;-66
2023/08/26 06:34:46;;;;;;;3.03;1.08;;;;;;;14.74;93.74;100836.19;5005291;28;20041;-66
2023/08/26 06:37:12;;;;;;;4.35;1.27;;;;;;;14.86;92.02;100838.34;4986776;28;20037;-65
2023/08/26 06:39:37;;;;;;;3.42;1.20;;;;;;;14.92;91.84;100825.38;5006766;28;20045;-66
2023/08/26 06:42:03;;;;;;;6.25;1.60;;;;;;;14.96;90.29;100815.38;5000919;28;20041;-65
2023/08/26 06:44:33;;;;;;;3.65;1.20;;;;;;;15.01;89.58;100817.41;5003655;28;20116;-66
2023/08/26 06:46:59;;;;;;;3.17;0.95;;;;;;;15.05;89.55;100821.28;5001010;28;20099;-65
2023/08/26 06:49:25;;;;;;;4.88;1.05;;;;;;;15.26;89.85;100816.09;4999798;28;20037;-66
2023/08/26 06:51:50;;;;;;;5.50;1.27;;;;;;;15.33;87.73;100826.59;5016781;28;20069;-66
2023/08/26 06:54:16;;;;;;;4.25;1.05;;;;;;;15.53;88.26;100824.97;5004916;28;20041;-66
2023/08/26 06:56:42;;;;;;;6.78;1.38;;;;;;;15.77;87.20;100815.16;5000963;28;21771;-66
2023/08/26 06:59:08;;;;;;;3.65;1.15;;;;;;;15.81;86.15;100813.75;4995690;28;20446;-66
2023/08/26 07:01:34;;;;;;;4.72;1.05;;;;;;;16.25;84.70;100815.25;5010134;28;20030;-66
2023/08/26 07:04:08;;;;;;;8.63;1.20;;;;;;;16.77;82.05;100814.88;5022836;28;20052;-66
2023/08/26 07:06:35;;;;;;;4.47;0.95;;;;;;;17.36;78.78;100816.03;5008344;28;20087;-66
2023/08/26 07:09:01;;;;;;;2.55;0.70;;;;;;;18.03;76.29;100807.16;5026729;28;20042;-66
2023/08/26 07:11:27;;;;;;;4.57;1.05;;;;;;;18.61;73.80;100795.88;5006799;28;20048;-66
2023/08/26 07:13:52;;;;;;;2.80;0.80;;;;;;;19.11;71.22;100797.84;5026532;28;20462;-66
2023/08/26 07:16:18;;;;;;;5.97;1.27;;;;;;;19.11;68.19;100797.84;5021317;28;20038;-66
2023/08/26 07:18:43;;;;;;;2.83;1.17;;;;;;;19.52;67.22;100807.06;5024775;28;20076;-66
2023/08/26 07:21:09;;;;;;;6.40;1.10;;;;;;;19.83;67.17;100803.59;5007834;28;20156;-66
2023/08/26 07:23:35;;;;;;;7.55;1.00;;;;;;;20.00;66.46;100808.25;5007256;28;20129;-66
2023/08/26 07:26:01;;;;;;;6.18;0.65;;;;;;;20.18;64.64;100813.53;5024856;28;20116;-66
2023/08/26 07:28:27;;;;;;;3.03;0.95;;;;;;;20.49;63.33;100803.06;5023729;28;20026;-66
2023/08/26 07:30:53;;;;;;;5.15;0.73;;;;;;;20.69;63.12;100808.91;5004237;28;20500;-66
2023/08/26 07:33:18;;;;;;;5.03;0.98;;;;;;;20.81;63.59;100801.06;5022183;28;20137;-66
2023/08/26 07:35:44;;;;;;;3.80;0.80;;;;;;;20.88;62.48;100803.59;5006909;28;20045;-67
2023/08/26 07:38:09;;;;;;;2.63;0.70;;;;;;;20.85;61.54;100801.41;5024659;28;20026;-66
2023/08/26 07:40:35;;;;;;;4.68;0.60;;;;;;;21.19;60.57;100789.34;4989919;28;20116;-66
2023/08/26 07:43:00;;;;;;;4.43;0.93;;;;;;;21.33;60.13;100796.03;5004926;28;20037;-66
2023/08/26 07:45:26;;;;;;;4.63;0.68;;;;;;;21.61;59.08;100799.06;5025529;28;20116;-66
2023/08/26 07:47:52;;;;;;;4.15;1.13;;;;;;;21.84;58.25;100793.00;5009023;28;20082;-66
2023/08/26 07:50:17;;;;;;;1.45;0.65;;;;;;;22.02;56.41;100792.84;5007720;28;21432;-66
2023/08/26 07:52:43;;;;;;;2.75;0.93;;;;;;;21.75;57.10;100803.06;4990466;28;20113;-66
2023/08/26 07:55:08;;;;;;;3.15;0.73;;;;;;;21.75;54.60;100809.16;5018168;28;20052;-66
2023/08/26 07:57:34;;;;;;;2.30;0.80;;;;;;;21.74;57.18;100806.75;5010391;28;20686;-66
2023/08/26 08:00:00;;;;;;;1.27;0.63;;;;;;;21.82;56.74;100811.69;5006590;28;20045;-66
2023/08/26 08:02:26;;;;;;;2.92;0.70;;;;;;;22.00;55.98;100804.66;5024447;28;20059;-66
2023/08/26 08:04:51;;;;;;;3.33;0.90;;;;;;;22.07;56.32;100806.13;5005099;28;20487;-66
2023/08/26 08:07:17;;;;;;;5.20;0.75;;;;;;;22.27;56.31;100805.00;5024004;28;20107;-66
2023/08/26 08:09:42;;;;;;;2.38;0.60;;;;;;;22.06;56.30;100801.91;5023268;28;20037;-66
2023/08/26 08:12:12;;;;;;;5.65;1.27;;;;;;;22.63;54.98;100805.69;5022442;28;20042;-66
2023/08/26 08:14:38;;;;;;;3.03;0.80;;;;;;;22.57;54.29;100802.16;5020705;28;20118;-66
2023/08/26 08:17:04;;;;;;;3.00;0.73;;;;;;;23.25;54.07;100810.22;5019673;28;20037;-66
2023/08/26 08:19:29;;;;;;;6.25;0.80;;;;;;;23.24;53.46;100812.03;5020075;28;20037;-67
2023/08/26 08:21:55;;;;;;;5.35;0.90;;;;;;;23.26;52.96;100811.81;5021393;28;20037;-66
2023/08/26 08:24:20;;;;;;;6.47;0.98;;;;;;;23.38;52.56;100815.19;5022107;28;20030;-66
2023/08/26 08:26:46;;;;;;;3.15;0.70;;;;;;;23.13;54.01;100818.22;5021188;28;20103;-66
2023/08/26 08:29:11;;;;;;;3.85;0.82;;;;;;;23.33;52.32;100817.75;5023802;28;20048;-66
2023/08/26 08:31:37;;;;;;;4.40;0.70;;;;;;;23.44;52.18;100813.44;5022771;28;20030;-66
2023/08/26 08:34:03;;;;;;;3.30;0.60;;;;;;;23.72;52.03;100815.16;5025026;28;20029;-66
2023/08/26 08:36:29;;;;;;;2.05;0.60;;;;;;;23.83;49.98;100821.44;5022845;28;20408;-67
2023/08/26 08:38:56;;;;;;;2.33;0.60;;;;;;;23.82;51.20;100812.69;5003174;28;20021;-66
2023/08/26 08:41:22;;;;;;;2.88;0.70;;;;;;;24.02;50.01;100816.66;5003172;28;20049;-66
2023/08/26 08:43:52;;;;;;;1.98;0.50;;;;;;;24.48;49.58;100807.41;5022109;28;20060;-66
2023/08/26 08:46:18;;;;;;;2.45;0.82;;;;;;;24.06;49.81;100820.41;5024804;28;20026;-66
2023/08/26 08:48:44;;;;;;;4.47;0.90;;;;;;;24.32;50.50;100818.06;5021360;28;20042;-66
2023/08/26 08:51:11;;;;;;;1.58;0.52;;;;;;;24.21;49.06;100825.13;5004686;28;20042;-66
2023/08/26 08:53:44;;;;;;;2.78;0.60;;;;;;;24.17;48.65;100811.56;5004598;28;20488;-66
2023/08/26 08:56:10;;;;;;;3.97;0.70;;;;;;;23.65;50.35;100817.97;5022344;28;20045;-66
2023/08/26 08:58:37;;;;;;;2.25;0.50;;;;;;;24.23;50.15;100813.22;5022238;28;20084;-66
2023/08/26 09:01:04;;;;;;;5.07;0.75;;;;;;;24.34;50.26;100811.50;5002443;28;20052;-66
2023/08/26 09:03:30;;;;;;;3.67;0.55;;;;;;;24.32;48.56;100816.25;5001686;28;20046;-66
2023/08/26 09:05:55;;;;;;;7.18;0.77;;;;;;;24.39;50.42;100811.56;5003143;28;20388;-66
2023/08/26 09:08:24;;;;;;;3.42;0.70;;;;;;;24.80;48.21;100817.28;5001502;28;20033;-66
2023/08/26 09:10:50;;;;;;;1.52;0.40;;;;;;;24.47;49.58;100815.63;5004978;28;20041;-66
2023/08/26 09:13:15;;;;;;;5.32;1.17;;;;;;;24.50;48.76;100820.41;5067660;22;20081;-68
2023/08/26 09:15:41;;;;;;;4.60;0.70;;;;;;;24.17;48.89;100827.44;5045161;28;20556;-69
2023/08/26 09:18:15;;;;;;;1.75;0.70;;;;;;;24.07;50.63;100828.13;5037980;28;20034;-68
2023/08/26 09:20:41;;;;;;;4.47;1.00;;;;;;;24.00;48.88;100824.84;5054378;28;20047;-69
2023/08/26 09:23:08;;;;;;;1.63;0.47;;;;;;;24.17;49.57;100832.75;5040229;28;20025;-69
2023/08/26 09:25:35;;;;;;;3.72;0.47;;;;;;;24.27;48.84;100821.47;5061889;28;20447;-69
2023/08/26 09:28:00;;;;;;;2.50;0.60;;;;;;;24.42;47.54;100823.50;5060758;28;20037;-68
2023/08/26 09:30:26;;;;;;;2.80;0.95;;;;;;;23.99;49.02;100825.09;5042560;28;20655;-68
2023/08/26 09:32:53;;;;;;;1.90;0.70;;;;;;;23.90;48.95;100836.13;5044215;28;20056;-68
2023/08/26 09:35:19;;;;;;;2.60;0.70;;;;;;;24.17;49.96;100830.09;5062351;28;20036;-68
2023/08/26 09:37:47;;;;;;;4.30;0.52;;;;;;;24.39;49.27;100824.81;5041788;28;20037;-68
2023/08/26 09:40:16;;;;;;;4.20;0.82;;;;;;;24.31;49.10;100822.56;5042612;28;20044;-68
2023/08/26 09:42:42;;;;;;;2.30;0.82;;;;;;;24.39;49.10;100813.38;5057683;28;20045;-68
2023/08/26 09:45:10;;;;;;;3.47;0.73;;;;;;;24.44;49.31;100811.59;5057562;28;20934;-68
2023/08/26 09:47:39;;;;;;;1.73;0.57;;;;;;;23.94;50.14;100822.38;5041411;28;20860;-68
2023/08/26 09:50:06;;;;;;;2.20;0.70;;;;;;;24.12;49.46;100821.28;5055827;28;20029;-68
2023/08/26 09:52:46;;;;;;;4.05;0.90;;;;;;;24.05;48.55;100824.94;5059085;28;20051;-69
2023/08/26 09:55:12;;;;;;;5.38;0.63;;;;;;;24.25;49.16;100815.63;5035184;28;20818;-69
2023/08/26 09:57:38;;;;;;;5.25;1.02;;;;;;;24.46;49.82;100814.78;5034170;28;20167;-68
2023/08/26 10:00:08;;;;;;;2.10;0.50;;;;;;;24.59;49.56;100813.66;5055483;28;20452;-69
2023/08/26 10:02:51;;;;;;;3.88;0.65;;;;;;;24.76;48.60;100816.19;5053612;28;20047;-68
2023/08/26 10:05:26;;;;;;;1.88;0.50;;;;;;;24.84;48.17;100809.66;5038356;28;20056;-68
2023/08/26 10:07:53;;;;;;;2.70;0.50;;;;;;;24.90;47.81;100813.16;5057317;28;20044;-68
2023/08/26 10:10:24;;;;;;;3.78;0.95;;;;;;;24.84;48.72;100804.34;5024317;28;20032;-68
2023/08/26 10:12:54;;;;;;;4.43;0.80;;;;;;;24.52;47.98;100813.03;5024867;28;20040;-68
2023/08/26 10:15:23;;;;;;;2.40;0.50;;;;;;;24.45;49.36;100809.78;5021932;28;20048;-68
2023/08/26 10:17:52;;;;;;;2.08;0.50;;;;;;;24.58;49.30;100808.59;5017977;28;20053;-68
2023/08/26 10:20:18;;;;;;;2.80;0.60;;;;;;;24.48;49.68;100802.09;5018651;28;20095;-69
2023/08/26 10:22:44;;;;;;;3.83;0.70;;;;;;;24.46;48.73;100811.34;5036649;28;20040;-68
2023/08/26 10:25:11;;;;;;;1.50;0.60;;;;;;;24.34;51.50;100808.06;5039170;28;20040;-69
2023/08/26 10:27:37;;;;;;;3.15;0.70;;;;;;;24.43;49.84;100811.84;5008167;28;20041;-68
2023/08/26 10:30:05;;;;;;;3.58;0.90;;;;;;;24.42;48.66;100813.69;5045778;28;20032;-69
2023/08/26 10:32:30;;;;;;;3.17;0.68;;;;;;;24.51;50.43;100811.41;4998144;28;20041;-68
2023/08/26 10:34:59;;;;;;;2.42;0.65;;;;;;;24.57;49.69;100813.09;5023366;28;20048;-69
2023/08/26 10:37:26;;;;;;;3.33;0.98;;;;;;;24.33;49.01;100814.38;5038815;28;20095;-69
2023/08/26 10:39:52;;;;;;;4.88;1.25;;;;;;;24.34;48.76;100821.31;5040530;28;20113;-69
2023/08/26 10:42:19;;;;;;;1.48;0.65;;;;;;;24.08;49.07;100805.09;5021186;28;20133;-69
2023/08/26 10:44:53;;;;;;;2.03;0.70;;;;;;;24.12;53.19;100818.63;5041008;28;20036;-69
2023/08/26 10:47:44;;;;;;;3.05;0.60;;;;;;;24.24;49.62;100804.22;5035811;28;20107;-69
2023/08/26 10:50:14;;;;;;;3.63;0.55;;;;;;;24.56;50.97;100813.34;5018761;28;20123;-69
2023/08/26 10:52:41;;;;;;;5.82;1.02;;;;;;;24.52;49.51;100807.72;5021514;28;20038;-69
2023/08/26 10:55:19;;;;;;;3.20;0.85;;;;;;;24.59;50.28;100813.66;5043827;28;20048;-69
2023/08/26 10:58:09;;;;;;;4.32;0.95;;;;;;;24.56;50.08;100814.13;5003978;28;20095;-69
2023/08/26 11:00:35;;;;;;;3.08;0.80;;;;;;;24.62;47.71;100809.69;5021221;28;20131;-71
2023/08/26 11:03:03;;;;;;;4.15;0.88;;;;;;;24.40;48.48;100802.53;5023792;28;20514;-69
2023/08/26 11:05:29;;;;;;;2.38;0.60;;;;;;;24.48;48.88;100803.94;5040886;28;20056;-69
2023/08/26 11:08:01;;;;;;;3.22;1.08;;;;;;;24.58;51.10;100809.41;5041803;28;20501;-69
2023/08/26 11:10:29;;;;;;;2.05;0.68;;;;;;;23.98;48.11;100805.75;5039013;28;20036;-69
2023/08/26 11:12:54;;;;;;;3.30;0.80;;;;;;;23.86;49.09;100803.19;5053785;28;20402;-69
2023/08/26 11:15:20;;;;;;;5.75;0.80;;;;;;;23.79;49.84;100793.84;5041138;28;20040;-69
2023/08/26 11:17:48;;;;;;;3.45;1.08;;;;;;;24.07;50.86;100804.28;5037502;28;20044;-69
2023/08/26 11:20:16;;;;;;;0.77;0.50;;;;;;;23.99;48.51;100801.25;5039584;28;20045;-69